createdAt,value
2018-07-14T00:01:42.922Z,78.76
2018-07-14T00:04:12.460Z,79.08
2018-07-14T00:06:42.507Z,79.38
2018-07-14T00:09:13.472Z,79.03
2018-07-14T00:11:43.282Z,80.31
2018-07-14T00:14:13.965Z,79.94
2018-07-14T00:16:43.803Z,79.95
2018-07-14T00:19:14.391Z,79.70
2018-07-14T00:21:44.041Z,80.01
2018-07-14T00:24:13.144Z,79.16
2018-07-14T00:26:42.173Z,78.64
2018-07-14T00:29:12.382Z,79.85
2018-07-14T00:31:43.057Z,79.75
2018-07-14T00:34:12.219Z,80.62
2018-07-14T00:36:42.886Z,80.65
2018-07-14T00:52:06.917Z,80.24
2018-07-14T00:54:36.290Z,79.98
2018-07-14T00:57:06.975Z,80.19
2018-07-14T00:59:37.618Z,80.87
2018-07-14T01:02:08.507Z,81.73
2018-07-14T01:04:37.874Z,82.06
2018-07-14T01:07:07.180Z,82.88
2018-07-14T01:09:37.785Z,82.35
2018-07-14T01:12:07.840Z,83.09
2018-07-14T01:14:38.494Z,84.20
2018-07-14T01:17:08.524Z,83.31
2018-07-14T01:19:39.552Z,83.24
2018-07-14T01:22:10.625Z,82.79
2018-07-14T01:24:39.869Z,82.76
2018-07-14T01:27:10.238Z,83.08
2018-07-14T01:29:41.125Z,82.90
2018-07-14T01:32:11.586Z,83.68
2018-07-14T01:34:40.780Z,83.89
2018-07-14T01:37:11.445Z,82.80
2018-07-14T01:39:40.997Z,82.27
2018-07-14T01:42:10.070Z,82.28
2018-07-14T01:44:39.963Z,83.20
2018-07-14T01:47:09.335Z,82.32
2018-07-14T01:49:40.640Z,82.34
2018-07-14T01:52:11.275Z,81.83
2018-07-14T01:54:40.467Z,81.89
2018-07-14T01:57:10.604Z,81.34
2018-07-14T01:59:40.892Z,81.65
2018-07-14T02:02:11.812Z,81.91
2018-07-14T02:04:42.287Z,82.83
2018-07-14T02:07:12.657Z,83.26
2018-07-14T02:09:42.455Z,82.88
2018-07-14T02:12:11.511Z,83.30
2018-07-14T02:14:41.267Z,83.26
2018-07-14T02:17:10.520Z,82.64
2018-07-14T02:19:41.311Z,83.39
2018-07-14T02:22:11.898Z,83.04
2018-07-14T02:24:44.893Z,82.76
2018-07-14T02:27:13.958Z,83.20
2018-07-14T02:29:44.126Z,82.98
2018-07-14T02:32:14.623Z,83.57
2018-07-14T02:34:44.976Z,83.29
2018-07-14T02:37:14.035Z,83.83
2018-07-14T02:39:43.626Z,84.22
2018-07-14T02:42:12.873Z,83.78
2018-07-14T02:44:42.876Z,83.87
2018-07-14T02:47:12.591Z,83.81
2018-07-14T02:49:41.893Z,84.24
2018-07-14T02:52:11.949Z,84.41
2018-07-14T02:54:42.590Z,84.14
2018-07-14T02:57:12.112Z,84.50
2018-07-14T02:59:42.354Z,84.35
2018-07-14T03:02:11.376Z,84.43
2018-07-14T03:04:41.522Z,84.90
2018-07-14T03:07:11.349Z,84.21
2018-07-14T03:09:40.440Z,85.31
2018-07-14T03:12:09.530Z,85.73
2018-07-14T03:14:40.611Z,85.19
2018-07-14T03:17:10.663Z,85.25
2018-07-14T03:19:41.077Z,85.24
2018-07-14T03:22:10.596Z,84.70
2018-07-14T03:24:40.941Z,84.71
2018-07-14T03:27:11.300Z,85.21
2018-07-14T03:29:41.966Z,85.95
2018-07-14T03:32:12.329Z,86.06
2018-07-14T03:34:43.483Z,85.53
2018-07-14T03:37:13.000Z,85.37
2018-07-14T03:39:43.713Z,85.18
2018-07-14T03:42:14.348Z,85.18
2018-07-14T03:44:45.181Z,85.28
2018-07-14T03:47:16.159Z,85.29
2018-07-14T03:49:45.229Z,85.08
2018-07-14T03:52:14.549Z,85.62
2018-07-14T03:54:44.706Z,85.64
2018-07-14T03:57:15.436Z,85.74
2018-07-14T03:59:44.876Z,86.15
2018-07-14T04:02:15.225Z,85.92
2018-07-14T04:04:45.557Z,86.32
2018-07-14T04:07:16.524Z,86.20
2018-07-14T04:09:47.241Z,86.36
2018-07-14T04:12:16.519Z,86.41
2018-07-14T04:14:47.648Z,86.29
2018-07-14T04:17:16.914Z,86.15
2018-07-14T04:19:45.937Z,86.19
2018-07-14T04:22:15.221Z,86.52
2018-07-14T04:24:45.620Z,86.14
2018-07-14T04:27:16.537Z,85.62
2018-07-14T04:29:47.160Z,85.20
2018-07-14T04:32:17.451Z,85.49
2018-07-14T04:34:47.988Z,85.24
2018-07-14T04:37:18.849Z,84.70
2018-07-14T04:39:48.213Z,85.21
2018-07-14T04:42:18.701Z,86.24
2018-07-14T04:44:49.497Z,85.71
2018-07-14T04:47:20.244Z,85.85
2018-07-14T04:49:49.515Z,85.54
2018-07-14T04:52:19.559Z,86.25
2018-07-14T04:54:48.643Z,86.00
2018-07-14T04:57:18.036Z,86.68
2018-07-14T04:59:47.354Z,86.90
2018-07-14T05:02:16.401Z,86.78
2018-07-14T05:05:16.907Z,86.25
2018-07-14T05:07:47.542Z,85.42
2018-07-14T05:10:18.292Z,86.50
2018-07-14T05:12:49.234Z,85.87
2018-07-14T05:15:19.966Z,85.90
2018-07-14T05:17:51.488Z,86.17
2018-07-14T05:20:21.215Z,86.56
2018-07-14T05:22:50.517Z,86.57
2018-07-14T05:25:19.716Z,85.99
2018-07-14T05:27:50.083Z,85.61
2018-07-14T05:30:20.239Z,85.92
2018-07-14T05:32:49.865Z,85.78
2018-07-14T05:35:20.644Z,86.08
2018-07-14T05:37:50.694Z,86.15
2018-07-14T05:40:21.218Z,84.55
2018-07-14T05:42:51.964Z,84.62
2018-07-14T05:45:22.234Z,84.68
2018-07-14T05:47:53.227Z,84.31
2018-07-14T05:50:22.716Z,84.01
2018-07-14T05:52:52.916Z,84.32
2018-07-14T05:55:54.546Z,83.60
2018-07-14T05:58:23.844Z,83.76
2018-07-14T06:00:53.739Z,83.66
2018-07-14T06:03:24.443Z,82.90
2018-07-14T06:05:54.089Z,83.00
2018-07-14T06:08:24.268Z,81.86
2018-07-14T06:10:54.813Z,82.43
2018-07-14T06:13:25.846Z,82.36
2018-07-14T06:15:56.100Z,81.18
2018-07-14T06:18:25.230Z,81.83
2018-07-14T06:20:55.162Z,82.30
2018-07-14T06:23:25.071Z,82.17
2018-07-14T06:25:56.070Z,81.91
2018-07-14T06:28:25.510Z,81.76
2018-07-14T06:30:55.958Z,82.84
2018-07-14T06:33:26.209Z,82.18
2018-07-14T06:35:56.685Z,80.70
2018-07-14T06:38:27.100Z,80.92
2018-07-14T06:40:57.084Z,82.06
2018-07-14T06:43:26.340Z,80.86
2018-07-14T06:45:55.525Z,80.74
2018-07-14T06:48:25.791Z,80.65
2018-07-14T06:50:56.426Z,79.73
2018-07-14T06:53:25.725Z,79.64
2018-07-14T06:55:55.671Z,79.89
2018-07-14T06:58:25.149Z,78.64
2018-07-14T07:00:55.314Z,77.49
2018-07-14T07:03:24.431Z,75.76
2018-07-14T07:05:53.826Z,75.56
2018-07-14T07:08:23.372Z,76.05
2018-07-14T07:10:53.880Z,75.22
2018-07-14T07:13:23.422Z,76.01
2018-07-14T07:15:53.985Z,74.96
2018-07-14T07:18:23.050Z,75.53
2018-07-14T07:20:53.830Z,74.02
2018-07-14T07:23:24.913Z,73.60
2018-07-14T07:25:55.556Z,74.15
2018-07-14T07:28:24.584Z,73.06
2018-07-14T07:30:54.002Z,72.07
2018-07-14T07:33:23.578Z,72.32
2018-07-14T07:35:53.818Z,71.11
2018-07-14T07:38:23.139Z,72.04
2018-07-14T07:40:54.420Z,72.14
2018-07-14T07:43:24.907Z,72.27
2018-07-14T07:45:55.204Z,72.34
2018-07-14T07:48:24.681Z,71.07
2018-07-14T07:50:53.750Z,69.84
2018-07-14T07:53:23.888Z,70.73
2018-07-14T07:55:55.468Z,70.35
2018-07-14T07:58:24.587Z,69.00
2018-07-14T08:00:54.753Z,66.85
2018-07-14T08:03:23.819Z,64.97
2018-07-14T08:05:54.389Z,65.94
2018-07-14T08:08:23.978Z,68.44
2018-07-14T08:10:53.097Z,68.94
2018-07-14T08:13:23.021Z,69.69
2018-07-14T08:15:52.256Z,67.22
2018-07-14T08:18:21.587Z,64.67
2018-07-14T08:20:51.611Z,64.16
2018-07-14T08:23:22.581Z,64.94
2018-07-14T08:25:51.789Z,63.17
2018-07-14T08:28:22.081Z,61.08
2018-07-14T08:30:51.631Z,59.21
2018-07-14T08:33:22.283Z,57.90
2018-07-14T08:35:52.710Z,57.88
2018-07-14T08:38:22.569Z,56.26
2018-07-14T08:40:52.493Z,58.66
2018-07-14T08:43:21.552Z,58.85
2018-07-14T08:45:51.539Z,57.31
2018-07-14T08:48:22.285Z,58.11
2018-07-14T08:50:51.705Z,58.31
2018-07-14T08:53:21.185Z,57.55
2018-07-14T08:55:51.956Z,57.15
2018-07-14T08:58:26.097Z,54.57
2018-07-14T09:00:56.030Z,55.16
2018-07-14T09:03:27.084Z,54.27
2018-07-14T09:05:58.020Z,51.86
2018-07-14T09:08:29.342Z,54.17
2018-07-14T09:10:59.524Z,53.11
2018-07-14T09:13:30.278Z,52.77
2018-07-14T09:16:00.678Z,53.36
2018-07-14T09:18:31.115Z,54.53
2018-07-14T09:21:01.335Z,54.00
2018-07-14T09:23:32.019Z,53.34
2018-07-14T09:26:01.584Z,54.45
2018-07-14T09:28:31.977Z,52.71
2018-07-14T09:31:01.859Z,54.09
2018-07-14T09:33:32.223Z,55.49
2018-07-14T09:36:02.304Z,55.17
2018-07-14T09:38:32.822Z,56.10
2018-07-14T09:41:02.671Z,56.27
2018-07-14T09:43:33.142Z,54.93
2018-07-14T09:46:03.512Z,55.05
2018-07-14T09:48:34.518Z,52.86
2018-07-14T09:51:05.173Z,53.25
2018-07-14T09:53:35.756Z,51.60
2018-07-14T09:56:05.949Z,51.29
2018-07-14T09:58:36.161Z,52.47
2018-07-14T10:01:10.880Z,50.50
2018-07-14T10:03:41.470Z,50.61
2018-07-14T10:06:10.827Z,49.48
2018-07-14T10:08:41.289Z,49.55
2018-07-14T10:11:11.855Z,50.05
2018-07-14T10:13:42.055Z,47.53
2018-07-14T10:16:12.296Z,48.79
2018-07-14T10:18:43.021Z,49.39
2018-07-14T10:21:13.379Z,49.73
2018-07-14T10:23:44.701Z,50.61
2018-07-14T10:26:14.592Z,49.49
2018-07-14T10:28:45.199Z,48.56
2018-07-14T10:31:15.814Z,46.29
2018-07-14T10:33:46.521Z,45.91
2018-07-14T10:36:17.145Z,41.53
2018-07-14T10:38:47.618Z,43.29
2018-07-14T10:41:17.115Z,45.04
2018-07-14T10:43:46.275Z,46.14
2018-07-14T10:46:47.068Z,45.97
2018-07-14T10:49:17.873Z,45.90
2018-07-14T10:51:47.790Z,46.38
2018-07-14T10:54:18.757Z,42.91
2018-07-14T10:56:49.276Z,40.24
2018-07-14T10:59:18.488Z,42.64
2018-07-14T11:01:49.078Z,42.42
2018-07-14T11:04:18.902Z,43.10
2018-07-14T11:06:49.122Z,44.39
2018-07-14T11:09:19.326Z,48.17
2018-07-14T11:11:49.801Z,46.92
2018-07-14T11:14:20.175Z,45.89
2018-07-14T11:16:50.469Z,41.73
2018-07-14T11:19:21.829Z,40.90
2018-07-14T11:21:52.500Z,38.34
2018-07-14T11:24:23.006Z,41.62
2018-07-14T11:26:53.418Z,41.01
2018-07-14T11:29:24.067Z,42.39
2018-07-14T11:31:54.753Z,42.52
2018-07-14T11:34:23.808Z,42.13
2018-07-14T11:36:53.671Z,43.33
2018-07-14T11:39:24.147Z,42.76
2018-07-14T11:41:54.114Z,44.28
2018-07-14T11:44:24.056Z,43.34
2018-07-14T11:46:53.085Z,45.31
2018-07-14T11:49:23.219Z,47.21
2018-07-14T11:51:53.155Z,50.73
2018-07-14T11:54:23.697Z,49.20
2018-07-14T11:56:54.374Z,50.75
2018-07-14T11:59:24.920Z,51.18
2018-07-14T12:01:54.182Z,52.42
2018-07-14T12:04:23.837Z,51.71
2018-07-14T12:06:54.715Z,54.84
2018-07-14T12:09:23.938Z,59.88
2018-07-14T12:11:53.842Z,63.25
2018-07-14T12:14:24.205Z,65.98
2018-07-14T12:16:55.272Z,67.13
2018-07-14T12:19:25.548Z,67.55
2018-07-14T12:21:54.709Z,65.48
2018-07-14T12:24:24.246Z,66.26
2018-07-14T12:26:54.225Z,64.87
2018-07-14T12:29:23.902Z,66.20
2018-07-14T12:31:53.148Z,65.85
2018-07-14T12:34:23.664Z,65.45
2018-07-14T12:36:53.582Z,65.31
2018-07-14T12:39:23.683Z,67.94
2018-07-14T12:41:54.143Z,66.18
2018-07-14T12:44:23.900Z,62.99
2018-07-14T12:46:54.358Z,58.93
2018-07-14T12:49:24.504Z,57.90
2018-07-14T12:51:54.149Z,57.13
2018-07-14T12:54:23.203Z,55.41
2018-07-14T12:56:53.261Z,55.07
2018-07-14T12:59:23.162Z,53.93
2018-07-14T13:01:54.214Z,53.73
2018-07-14T13:04:23.290Z,55.85
2018-07-14T13:06:53.190Z,55.29
2018-07-14T13:09:23.583Z,53.78
2018-07-14T13:11:53.058Z,52.75
2018-07-14T13:14:22.828Z,53.62
2018-07-14T13:16:53.504Z,52.34
2018-07-14T13:19:22.985Z,51.99
2018-07-14T13:21:53.653Z,52.45
2018-07-14T13:24:24.128Z,52.00
2018-07-14T13:26:55.028Z,49.63
2018-07-14T13:29:25.420Z,50.72
2018-07-14T13:31:54.640Z,50.53
2018-07-14T13:34:23.731Z,47.85
2018-07-14T13:36:54.128Z,47.28
2018-07-14T13:39:25.135Z,47.28
2018-07-14T13:41:54.908Z,44.22
2018-07-14T13:44:26.278Z,45.25
2018-07-14T13:46:55.376Z,44.62
2018-07-14T13:49:25.891Z,44.60
2018-07-14T13:51:56.284Z,44.43
2018-07-14T13:54:25.489Z,45.35
2018-07-14T13:56:55.047Z,47.39
2018-07-14T13:59:24.901Z,44.16
2018-07-14T14:01:54.771Z,47.81
2018-07-14T14:04:23.831Z,47.20
2018-07-14T14:06:53.282Z,45.37
2018-07-14T14:09:23.160Z,44.82
2018-07-14T14:11:53.033Z,41.32
2018-07-14T14:14:22.144Z,42.18
2018-07-14T14:16:51.285Z,40.15
2018-07-14T14:19:21.021Z,39.66
2018-07-14T14:22:20.917Z,40.03
2018-07-14T14:24:50.529Z,39.67
2018-07-14T14:27:19.560Z,38.42
2018-07-14T14:29:49.216Z,39.71
2018-07-14T14:32:19.120Z,36.75
2018-07-14T14:34:48.614Z,38.77
2018-07-14T14:37:18.783Z,37.75
2018-07-14T14:39:48.039Z,37.34
2018-07-14T14:42:17.055Z,35.82
2018-07-14T14:44:46.941Z,34.73
2018-07-14T14:47:16.340Z,34.72
2018-07-14T14:49:45.396Z,33.54
2018-07-14T14:52:15.486Z,36.54
2018-07-14T14:54:45.484Z,36.10
2018-07-14T14:57:15.517Z,35.53
2018-07-14T14:59:45.069Z,34.72
2018-07-14T15:02:16.505Z,35.50
2018-07-14T15:04:46.521Z,34.37
2018-07-14T15:07:15.674Z,33.77
2018-07-14T15:09:45.920Z,33.77
2018-07-14T15:12:15.153Z,31.29
2018-07-14T15:14:45.019Z,31.52
2018-07-14T15:17:16.446Z,33.42
2018-07-14T15:19:46.554Z,33.63
2018-07-14T15:22:16.487Z,35.53
2018-07-14T15:24:46.543Z,34.60
2018-07-14T15:27:17.038Z,38.41
2018-07-14T15:29:46.657Z,36.24
2018-07-14T15:32:15.815Z,36.68
2018-07-14T15:34:45.193Z,34.50
2018-07-14T15:37:15.154Z,36.17
2018-07-14T15:39:44.198Z,35.77
2018-07-14T15:42:14.107Z,37.53
2018-07-14T15:44:44.060Z,36.69
2018-07-14T15:47:13.346Z,36.75
2018-07-14T15:49:43.330Z,36.95
2018-07-14T15:52:12.877Z,37.71
2018-07-14T15:54:42.784Z,35.89
2018-07-14T15:57:12.660Z,38.01
2018-07-14T15:59:41.711Z,36.22
2018-07-14T16:02:11.716Z,36.78
2018-07-14T16:04:41.609Z,37.08
2018-07-14T16:07:10.643Z,37.43
2018-07-14T16:09:39.823Z,37.09
2018-07-14T16:12:09.494Z,33.42
2018-07-14T16:14:38.532Z,36.86
2018-07-14T16:17:08.104Z,38.65
2018-07-14T16:19:37.618Z,35.58
2018-07-14T16:22:07.825Z,38.48
2018-07-14T16:24:36.856Z,37.26
2018-07-14T16:27:06.317Z,36.96
2018-07-14T16:29:36.178Z,36.72
2018-07-14T16:32:05.876Z,36.55
2018-07-14T16:34:35.805Z,38.66
2018-07-14T16:37:05.412Z,38.00
2018-07-14T16:39:34.451Z,37.61
2018-07-14T16:42:03.543Z,36.78
2018-07-14T16:44:33.364Z,38.17
2018-07-14T16:47:02.411Z,37.61
2018-07-14T16:49:32.212Z,37.86
2018-07-14T16:52:02.206Z,38.61
2018-07-14T16:54:31.711Z,40.21
2018-07-14T16:57:01.935Z,38.92
2018-07-14T16:59:31.011Z,38.82
2018-07-14T17:02:00.212Z,39.37
2018-07-14T17:05:00.107Z,39.53
2018-07-14T17:07:29.785Z,40.20
2018-07-14T17:09:59.745Z,40.67
2018-07-14T17:12:28.866Z,41.13
2018-07-14T17:14:57.926Z,41.86
2018-07-14T17:17:27.845Z,41.77
2018-07-14T17:19:57.109Z,40.40
2018-07-14T17:22:26.373Z,41.24
2018-07-14T17:24:56.160Z,42.54
2018-07-14T17:27:25.187Z,41.49
2018-07-14T17:29:54.334Z,40.36
2018-07-14T17:32:24.219Z,41.04
2018-07-14T17:34:53.257Z,41.54
2018-07-14T17:37:23.186Z,44.89
2018-07-14T17:39:53.082Z,45.85
2018-07-14T17:42:23.120Z,46.24
2018-07-14T17:44:52.723Z,47.23
2018-07-14T17:47:22.508Z,48.00
2018-07-14T17:49:52.620Z,48.08
2018-07-14T17:52:21.716Z,47.78
2018-07-14T17:54:51.056Z,48.44
2018-07-14T17:57:20.185Z,48.50
2018-07-14T17:59:49.301Z,49.61
2018-07-14T18:02:20.496Z,48.82
2018-07-14T18:04:51.238Z,49.37
2018-07-14T18:07:21.496Z,49.36
2018-07-14T18:09:53.087Z,50.23
2018-07-14T18:12:22.170Z,50.35
2018-07-14T18:14:52.125Z,51.01
2018-07-14T18:17:22.622Z,49.86
2018-07-14T18:19:51.868Z,51.52
2018-07-14T18:22:22.520Z,51.04
2018-07-14T18:24:52.602Z,51.51
2018-07-14T18:27:22.148Z,51.75
2018-07-14T18:29:53.646Z,51.81
2018-07-14T18:32:22.805Z,52.16
2018-07-14T18:34:53.635Z,51.72
2018-07-14T18:37:22.909Z,54.91
2018-07-14T18:39:52.834Z,54.30
2018-07-14T18:42:22.761Z,54.60
2018-07-14T18:44:52.976Z,54.94
2018-07-14T18:47:22.136Z,55.55
2018-07-14T18:49:52.066Z,55.69
2018-07-14T18:52:21.624Z,56.58
2018-07-14T18:54:52.483Z,57.25
2018-07-14T18:57:22.780Z,57.74
2018-07-14T18:59:52.650Z,57.66
2018-07-14T19:02:22.338Z,57.40
2018-07-14T19:04:52.324Z,59.67
2018-07-14T19:07:21.917Z,59.73
2018-07-14T19:09:52.549Z,61.92
2018-07-14T19:12:22.103Z,63.05
2018-07-14T19:14:52.867Z,61.89
2018-07-14T19:17:22.237Z,62.04
2018-07-14T19:19:53.247Z,62.62
2018-07-14T19:22:22.307Z,63.40
2018-07-14T19:24:52.435Z,63.21
2018-07-14T19:27:22.557Z,63.31
2018-07-14T19:29:53.169Z,64.03
2018-07-14T19:32:23.754Z,62.80
2018-07-14T19:34:55.766Z,62.27
2018-07-14T19:37:27.635Z,62.20
2018-07-14T19:39:58.224Z,63.05
2018-07-14T19:42:28.816Z,63.88
2018-07-14T19:44:58.144Z,64.29
2018-07-14T19:47:27.739Z,64.88
2018-07-14T19:49:57.200Z,64.46
2018-07-14T19:52:26.703Z,64.94
2018-07-14T19:54:57.021Z,66.07
2018-07-14T19:57:27.640Z,66.36
2018-07-14T19:59:58.016Z,67.17
2018-07-14T20:02:28.267Z,67.28
2018-07-14T20:04:57.468Z,67.61
2018-07-14T20:07:28.258Z,67.52
2018-07-14T20:09:58.463Z,67.13
2018-07-14T20:12:28.950Z,67.72
2018-07-14T20:14:58.938Z,68.42
2018-07-14T20:17:29.384Z,68.20
2018-07-14T20:19:59.447Z,67.12
2018-07-14T20:22:28.506Z,67.80
2018-07-14T20:24:57.959Z,67.79
2018-07-14T20:27:27.764Z,68.11
2018-07-14T20:29:58.313Z,67.64
2018-07-14T20:32:27.855Z,68.79
2018-07-14T20:34:57.295Z,68.17
2018-07-14T20:37:26.321Z,68.60
2018-07-14T20:39:55.525Z,68.98
2018-07-14T20:42:25.781Z,68.97
2018-07-14T20:44:56.060Z,70.42
2018-07-14T20:47:26.482Z,70.86
2018-07-14T20:49:56.832Z,70.69
2018-07-14T20:52:27.942Z,71.90
2018-07-14T20:54:58.421Z,72.11
2018-07-14T20:57:29.064Z,71.64
2018-07-14T20:59:58.972Z,72.42
2018-07-14T21:02:29.293Z,72.66
2018-07-14T21:05:00.062Z,72.55
2018-07-14T21:07:30.197Z,73.51
2018-07-14T21:10:01.039Z,74.03
2018-07-14T21:12:32.205Z,73.80
2018-07-14T21:15:02.527Z,74.61
2018-07-14T21:17:33.357Z,74.46
2018-07-14T21:20:03.694Z,75.47
2018-07-14T21:22:33.968Z,75.17
2018-07-14T21:25:04.236Z,75.13
2018-07-14T21:27:34.159Z,75.79
2018-07-14T21:30:03.372Z,75.76
2018-07-14T21:32:32.620Z,75.93
2018-07-14T21:35:01.807Z,75.73
2018-07-14T21:37:30.966Z,75.66
2018-07-14T21:40:01.618Z,76.86
2018-07-14T21:42:31.617Z,76.39
2018-07-14T21:45:02.062Z,76.28
2018-07-14T21:47:31.135Z,77.19
2018-07-14T21:50:01.749Z,76.88
2018-07-14T21:52:31.300Z,76.69
2018-07-14T21:55:01.913Z,77.01
2018-07-14T21:57:32.717Z,78.29
2018-07-14T22:00:03.161Z,78.33
2018-07-14T22:02:33.868Z,77.96
2018-07-14T22:05:04.161Z,78.38
2018-07-14T22:07:33.269Z,78.75
2018-07-14T22:10:04.139Z,78.19
2018-07-14T22:12:33.450Z,78.84
2018-07-14T22:15:03.039Z,79.09
2018-07-14T22:17:32.054Z,78.81
2018-07-14T22:20:01.186Z,79.28
2018-07-14T22:22:31.605Z,79.92
2018-07-14T22:25:00.990Z,79.40
2018-07-14T22:27:31.656Z,80.08
2018-07-14T22:30:00.893Z,80.17
2018-07-14T22:32:31.126Z,80.81
2018-07-14T22:35:00.509Z,80.33
2018-07-14T22:37:29.902Z,80.35
2018-07-14T22:39:59.243Z,80.94
2018-07-14T22:42:28.348Z,80.60
2018-07-14T22:44:57.444Z,81.43
2018-07-14T22:47:27.165Z,81.57
2018-07-14T22:49:56.502Z,81.37
2018-07-14T22:52:26.633Z,82.24
2018-07-14T22:54:55.926Z,81.32
2018-07-14T22:57:26.386Z,81.79
2018-07-14T22:59:55.770Z,81.07
2018-07-14T23:02:25.226Z,80.67
2018-07-14T23:04:54.508Z,80.59
2018-07-14T23:07:24.263Z,81.69
2018-07-14T23:09:53.413Z,80.34
2018-07-14T23:12:22.746Z,80.73
2018-07-14T23:14:51.829Z,81.73
2018-07-14T23:17:21.057Z,81.49
2018-07-14T23:19:50.373Z,82.12
2018-07-14T23:22:20.450Z,82.14
2018-07-14T23:24:50.925Z,82.21
2018-07-14T23:27:20.383Z,83.20
2018-07-14T23:29:50.300Z,83.38
2018-07-14T23:32:20.122Z,82.95
2018-07-14T23:34:50.417Z,83.61
2018-07-14T23:37:21.626Z,83.16
2018-07-14T23:39:52.026Z,83.65
2018-07-14T23:42:22.136Z,82.84
2018-07-14T23:44:52.947Z,82.62
2018-07-14T23:47:24.103Z,82.39
2018-07-14T23:49:54.806Z,82.79
2018-07-14T23:52:23.968Z,82.58
2018-07-14T23:54:54.857Z,83.24
2018-07-14T23:57:25.714Z,83.22
2018-07-14T23:59:56.155Z,82.83
